sensor_id;sensor_type;location;lat;lon;timestamp;pressure;altitude;pressure_sealevel;temperature;humidity
7178;BME280;3630;42.146;24.756;2023-03-11T00:00:40;97670.44;;;13.32;86.29
7178;BME280;3630;42.146;24.756;2023-03-11T00:03:11;97662.56;;;13.38;85.28
7178;BME280;3630;42.146;24.756;2023-03-11T00:05:40;97643.78;;;13.33;85.03
7178;BME280;3630;42.146;24.756;2023-03-11T00:08:10;97660.00;;;13.38;85.02
7178;BME280;3630;42.146;24.756;2023-03-11T00:10:40;97626.00;;;13.23;85.04
7178;BME280;3630;42.146;24.756;2023-03-11T00:13:09;97651.22;;;13.45;84.99
7178;BME280;3630;42.146;24.756;2023-03-11T00:15:37;97648.78;;;13.39;84.65
7178;BME280;3630;42.146;24.756;2023-03-11T00:18:05;97645.22;;;13.45;84.88
7178;BME280;3630;42.146;24.756;2023-03-11T00:20:33;97617.03;;;13.37;84.59
7178;BME280;3630;42.146;24.756;2023-03-11T00:23:02;97611.97;;;13.34;85.16
7178;BME280;3630;42.146;24.756;2023-03-11T00:25:31;97611.59;;;13.14;86.65
7178;BME280;3630;42.146;24.756;2023-03-11T00:27:59;97615.41;;;13.33;86.25
7178;BME280;3630;42.146;24.756;2023-03-11T00:30:26;97574.44;;;13.21;85.36
7178;BME280;3630;42.146;24.756;2023-03-11T00:32:55;97602.03;;;13.51;85.60
7178;BME280;3630;42.146;24.756;2023-03-11T00:35:24;97582.16;;;13.56;84.39
7178;BME280;3630;42.146;24.756;2023-03-11T00:37:53;97579.56;;;13.56;84.25
7178;BME280;3630;42.146;24.756;2023-03-11T00:40:22;97587.31;;;13.56;84.44
7178;BME280;3630;42.146;24.756;2023-03-11T00:42:51;97573.59;;;13.54;84.15
7178;BME280;3630;42.146;24.756;2023-03-11T00:45:18;97563.34;;;13.51;84.25
7178;BME280;3630;42.146;24.756;2023-03-11T00:47:45;97563.34;;;13.51;84.65
7178;BME280;3630;42.146;24.756;2023-03-11T00:50:14;97542.19;;;13.39;84.64
7178;BME280;3630;42.146;24.756;2023-03-11T00:52:43;97511.53;;;13.28;84.79
7178;BME280;3630;42.146;24.756;2023-03-11T00:55:13;97541.03;;;13.50;84.71
7178;BME280;3630;42.146;24.756;2023-03-11T00:57:40;97553.03;;;13.51;84.45
7178;BME280;3630;42.146;24.756;2023-03-11T01:00:12;97544.41;;;13.52;84.15
7178;BME280;3630;42.146;24.756;2023-03-11T01:02:39;97555.06;;;13.40;84.79
7178;BME280;3630;42.146;24.756;2023-03-11T01:05:07;97550.63;;;13.45;84.72
7178;BME280;3630;42.146;24.756;2023-03-11T01:07:33;97548.00;;;13.47;84.35
7178;BME280;3630;42.146;24.756;2023-03-11T01:10:00;97537.81;;;13.42;84.78
7178;BME280;3630;42.146;24.756;2023-03-11T01:12:27;97534.00;;;13.23;85.28
7178;BME280;3630;42.146;24.756;2023-03-11T01:14:54;97527.16;;;13.22;86.01
7178;BME280;3630;42.146;24.756;2023-03-11T01:17:22;97525.66;;;13.14;86.33
7178;BME280;3630;42.146;24.756;2023-03-11T01:19:49;97514.06;;;12.96;87.43
7178;BME280;3630;42.146;24.756;2023-03-11T01:22:16;97506.09;;;12.70;88.99
7178;BME280;3630;42.146;24.756;2023-03-11T01:24:43;97501.22;;;12.59;90.13
7178;BME280;3630;42.146;24.756;2023-03-11T01:27:10;97502.84;;;12.63;90.27
7178;BME280;3630;42.146;24.756;2023-03-11T01:29:37;97508.75;;;12.67;90.65
7178;BME280;3630;42.146;24.756;2023-03-11T01:32:04;97505.31;;;12.68;90.59
7178;BME280;3630;42.146;24.756;2023-03-11T01:34:32;97489.84;;;12.68;90.67
7178;BME280;3630;42.146;24.756;2023-03-11T01:37:00;97497.59;;;12.66;91.69
7178;BME280;3630;42.146;24.756;2023-03-11T01:39:27;97509.31;;;12.79;91.26
7178;BME280;3630;42.146;24.756;2023-03-11T01:41:54;97487.22;;;12.69;91.04
7178;BME280;3630;42.146;24.756;2023-03-11T01:44:21;97521.06;;;12.91;90.48
7178;BME280;3630;42.146;24.756;2023-03-11T01:49:53;97500.31;;;12.95;89.75
7178;BME280;3630;42.146;24.756;2023-03-11T01:52:20;97493.50;;;12.93;89.90
7178;BME280;3630;42.146;24.756;2023-03-11T01:54:47;97505.41;;;12.97;89.75
7178;BME280;3630;42.146;24.756;2023-03-11T01:57:14;97504.53;;;12.98;89.61
7178;BME280;3630;42.146;24.756;2023-03-11T01:59:44;97504.19;;;12.78;90.64
7178;BME280;3630;42.146;24.756;2023-03-11T02:02:16;97477.50;;;12.80;90.36
7178;BME280;3630;42.146;24.756;2023-03-11T02:04:44;97480.56;;;12.96;90.06
7178;BME280;3630;42.146;24.756;2023-03-11T02:07:14;97436.47;;;12.73;89.75
7178;BME280;3630;42.146;24.756;2023-03-11T02:09:41;97452.19;;;12.96;90.11
7178;BME280;3630;42.146;24.756;2023-03-11T02:12:10;97451.28;;;12.98;90.32
7178;BME280;3630;42.146;24.756;2023-03-11T02:14:38;97455.50;;;13.01;90.37
7178;BME280;3630;42.146;24.756;2023-03-11T02:17:07;97467.41;;;13.05;90.09
7178;BME280;3630;42.146;24.756;2023-03-11T02:19:40;97482.88;;;13.05;89.93
7178;BME280;3630;42.146;24.756;2023-03-11T02:22:13;97496.56;;;13.09;90.06
7178;BME280;3630;42.146;24.756;2023-03-11T02:24:43;97514.63;;;13.09;89.74
7178;BME280;3630;42.146;24.756;2023-03-11T02:27:15;97547.50;;;12.99;89.84
7178;BME280;3630;42.146;24.756;2023-03-11T02:29:43;97551.22;;;12.87;90.19
7178;BME280;3630;42.146;24.756;2023-03-11T02:32:14;97549.09;;;12.68;90.96
7178;BME280;3630;42.146;24.756;2023-03-11T02:34:41;97549.59;;;12.47;91.98
7178;BME280;3630;42.146;24.756;2023-03-11T02:37:09;97546.34;;;12.38;91.87
7178;BME280;3630;42.146;24.756;2023-03-11T02:39:38;97550.66;;;12.36;92.36
7178;BME280;3630;42.146;24.756;2023-03-11T02:42:10;97556.84;;;12.29;92.56
7178;BME280;3630;42.146;24.756;2023-03-11T02:44:41;97556.06;;;12.26;92.67
7178;BME280;3630;42.146;24.756;2023-03-11T02:47:09;97549.38;;;12.17;93.20
7178;BME280;3630;42.146;24.756;2023-03-11T02:49:37;97555.34;;;12.19;93.02
7178;BME280;3630;42.146;24.756;2023-03-11T02:52:05;97515.34;;;12.03;92.93
7178;BME280;3630;42.146;24.756;2023-03-11T02:54:32;97533.00;;;12.21;93.25
7178;BME280;3630;42.146;24.756;2023-03-11T02:56:59;97530.41;;;12.21;93.12
7178;BME280;3630;42.146;24.756;2023-03-11T02:59:25;97527.16;;;12.13;93.19
7178;BME280;3630;42.146;24.756;2023-03-11T03:01:54;97514.06;;;12.24;93.28
7178;BME280;3630;42.146;24.756;2023-03-11T03:04:20;97493.47;;;12.24;92.94
7178;BME280;3630;42.146;24.756;2023-03-11T03:06:47;97485.59;;;12.30;93.05
7178;BME280;3630;42.146;24.756;2023-03-11T03:09:14;97485.41;;;12.37;92.68
7178;BME280;3630;42.146;24.756;2023-03-11T03:11:41;97465.53;;;12.44;92.18
7178;BME280;3630;42.146;24.756;2023-03-11T03:14:07;97449.19;;;12.45;91.36
7178;BME280;3630;42.146;24.756;2023-03-11T03:16:34;97445.06;;;12.38;91.87
7178;BME280;3630;42.146;24.756;2023-03-11T03:19:02;97438.03;;;12.44;91.69
7178;BME280;3630;42.146;24.756;2023-03-11T03:21:29;97434.66;;;12.42;91.94
7178;BME280;3630;42.146;24.756;2023-03-11T03:23:56;97438.72;;;12.51;91.75
7178;BME280;3630;42.146;24.756;2023-03-11T03:26:23;97438.69;;;12.53;91.09
7178;BME280;3630;42.146;24.756;2023-03-11T03:28:50;97447.44;;;12.46;91.69
7178;BME280;3630;42.146;24.756;2023-03-11T03:31:17;97440.84;;;12.35;91.86
7178;BME280;3630;42.146;24.756;2023-03-11T03:33:44;97442.69;;;12.30;91.89
7178;BME280;3630;42.146;24.756;2023-03-11T03:36:14;97435.03;;;12.26;92.72
7178;BME280;3630;42.146;24.756;2023-03-11T03:38:41;97446.25;;;12.25;92.93
7178;BME280;3630;42.146;24.756;2023-03-11T03:41:09;97398.84;;;11.97;92.77
7178;BME280;3630;42.146;24.756;2023-03-11T03:43:35;97444.44;;;12.28;91.96
7178;BME280;3630;42.146;24.756;2023-03-11T03:46:04;97439.25;;;12.30;91.69
7178;BME280;3630;42.146;24.756;2023-03-11T03:48:31;97441.91;;;12.27;91.76
7178;BME280;3630;42.146;24.756;2023-03-11T03:51:02;97438.41;;;12.28;91.74
7178;BME280;3630;42.146;24.756;2023-03-11T03:53:32;97447.72;;;12.33;91.66
7178;BME280;3630;42.146;24.756;2023-03-11T03:56:01;97453.59;;;12.40;91.46
7178;BME280;3630;42.146;24.756;2023-03-11T03:58:28;97455.22;;;12.44;91.12
7178;BME280;3630;42.146;24.756;2023-03-11T04:00:55;97470.44;;;12.53;90.28
7178;BME280;3630;42.146;24.756;2023-03-11T04:03:22;97452.09;;;12.31;90.07
7178;BME280;3630;42.146;24.756;2023-03-11T04:05:49;97497.09;;;12.52;90.38
7178;BME280;3630;42.146;24.756;2023-03-11T04:08:16;97503.19;;;12.48;90.45
7178;BME280;3630;42.146;24.756;2023-03-11T04:10:47;97527.03;;;12.56;90.39
7178;BME280;3630;42.146;24.756;2023-03-11T04:13:21;97538.91;;;12.63;90.48
7178;BME280;3630;42.146;24.756;2023-03-11T04:15:48;97534.81;;;12.55;90.00
7178;BME280;3630;42.146;24.756;2023-03-11T04:18:15;97538.81;;;12.66;89.75
7178;BME280;3630;42.146;24.756;2023-03-11T04:20:41;97546.47;;;12.71;89.64
7178;BME280;3630;42.146;24.756;2023-03-11T04:23:08;97549.91;;;12.70;89.12
7178;BME280;3630;42.146;24.756;2023-03-11T04:25:35;97539.56;;;12.71;89.36
7178;BME280;3630;42.146;24.756;2023-03-11T04:28:03;97555.84;;;12.72;88.44
7178;BME280;3630;42.146;24.756;2023-03-11T04:30:30;97561.88;;;12.72;88.38
7178;BME280;3630;42.146;24.756;2023-03-11T04:32:57;97566.34;;;12.66;88.65
7178;BME280;3630;42.146;24.756;2023-03-11T04:35:24;97562.13;;;12.62;88.56
7178;BME280;3630;42.146;24.756;2023-03-11T04:37:50;97586.16;;;12.62;89.08
7178;BME280;3630;42.146;24.756;2023-03-11T04:40:17;97577.75;;;12.54;89.24
7178;BME280;3630;42.146;24.756;2023-03-11T04:42:44;97578.63;;;12.53;89.39
7178;BME280;3630;42.146;24.756;2023-03-11T04:45:12;97580.53;;;12.45;89.96
7178;BME280;3630;42.146;24.756;2023-03-11T04:47:39;97576.34;;;12.41;89.52
7178;BME280;3630;42.146;24.756;2023-03-11T04:50:06;97573.59;;;12.47;89.90
7178;BME280;3630;42.146;24.756;2023-03-11T04:52:33;97569.34;;;12.46;89.74
7178;BME280;3630;42.146;24.756;2023-03-11T04:55:00;97589.78;;;12.54;88.85
7178;BME280;3630;42.146;24.756;2023-03-11T04:57:26;97571.84;;;12.49;88.46
7178;BME280;3630;42.146;24.756;2023-03-11T04:59:53;97571.69;;;12.57;87.96
7178;BME280;3630;42.146;24.756;2023-03-11T05:02:21;97570.66;;;12.64;88.09
7178;BME280;3630;42.146;24.756;2023-03-11T05:04:48;97576.53;;;12.70;87.85
7178;BME280;3630;42.146;24.756;2023-03-11T05:07:15;97574.69;;;12.75;87.84
7178;BME280;3630;42.146;24.756;2023-03-11T05:09:42;97575.47;;;12.79;86.97
7178;BME280;3630;42.146;24.756;2023-03-11T05:12:10;97577.31;;;12.74;86.80
7178;BME280;3630;42.146;24.756;2023-03-11T05:14:37;97587.47;;;12.80;86.28
7178;BME280;3630;42.146;24.756;2023-03-11T05:17:05;97591.63;;;12.85;86.04
7178;BME280;3630;42.146;24.756;2023-03-11T05:19:33;97589.81;;;12.90;85.48
7178;BME280;3630;42.146;24.756;2023-03-11T05:22:00;97581.09;;;12.94;85.04
7178;BME280;3630;42.146;24.756;2023-03-11T05:24:27;97583.47;;;13.02;84.55
7178;BME280;3630;42.146;24.756;2023-03-11T05:26:55;97578.13;;;13.13;83.50
7178;BME280;3630;42.146;24.756;2023-03-11T05:29:22;97579.78;;;13.14;82.84
7178;BME280;3630;42.146;24.756;2023-03-11T05:31:49;97582.09;;;13.26;82.51
7178;BME280;3630;42.146;24.756;2023-03-11T05:34:16;97584.53;;;13.30;82.63
7178;BME280;3630;42.146;24.756;2023-03-11T05:36:45;97591.25;;;13.37;82.16
7178;BME280;3630;42.146;24.756;2023-03-11T05:39:12;97569.69;;;13.40;81.84
7178;BME280;3630;42.146;24.756;2023-03-11T05:41:39;97583.97;;;13.51;81.37
7178;BME280;3630;42.146;24.756;2023-03-11T05:44:06;97581.28;;;13.56;81.15
7178;BME280;3630;42.146;24.756;2023-03-11T05:46:33;97580.28;;;13.62;80.82
7178;BME280;3630;42.146;24.756;2023-03-11T05:48:59;97573.19;;;13.70;79.88
7178;BME280;3630;42.146;24.756;2023-03-11T05:51:26;97575.63;;;13.74;79.78
7178;BME280;3630;42.146;24.756;2023-03-11T05:53:55;97571.28;;;13.76;79.88
7178;BME280;3630;42.146;24.756;2023-03-11T05:56:23;97573.53;;;13.88;79.18
7178;BME280;3630;42.146;24.756;2023-03-11T05:58:49;97563.19;;;13.88;79.29
7178;BME280;3630;42.146;24.756;2023-03-11T06:01:18;97547.31;;;13.73;79.52
7178;BME280;3630;42.146;24.756;2023-03-11T06:03:45;97564.75;;;13.94;79.07
7178;BME280;3630;42.146;24.756;2023-03-11T06:06:12;97558.81;;;13.92;79.28
7178;BME280;3630;42.146;24.756;2023-03-11T06:08:39;97565.41;;;14.02;79.11
7178;BME280;3630;42.146;24.756;2023-03-11T06:11:11;97559.84;;;14.15;79.18
7178;BME280;3630;42.146;24.756;2023-03-11T06:13:38;97554.13;;;14.35;77.98
7178;BME280;3630;42.146;24.756;2023-03-11T06:16:06;97546.81;;;14.49;77.08
7178;BME280;3630;42.146;24.756;2023-03-11T06:18:33;97543.97;;;14.57;76.69
7178;BME280;3630;42.146;24.756;2023-03-11T06:21:00;97508.28;;;14.42;75.54
7178;BME280;3630;42.146;24.756;2023-03-11T06:23:29;97534.91;;;14.71;75.12
7178;BME280;3630;42.146;24.756;2023-03-11T06:25:56;97539.06;;;14.75;74.57
7178;BME280;3630;42.146;24.756;2023-03-11T06:28:28;97526.97;;;14.77;74.26
7178;BME280;3630;42.146;24.756;2023-03-11T06:30:55;97515.13;;;14.70;74.01
7178;BME280;3630;42.146;24.756;2023-03-11T06:33:24;97533.69;;;14.83;74.03
7178;BME280;3630;42.146;24.756;2023-03-11T06:35:57;97531.53;;;14.96;73.49
7178;BME280;3630;42.146;24.756;2023-03-11T06:38:24;97545.16;;;15.01;73.66
7178;BME280;3630;42.146;24.756;2023-03-11T06:40:51;97540.06;;;14.98;74.01
7178;BME280;3630;42.146;24.756;2023-03-11T06:43:18;97527.91;;;15.01;74.11
7178;BME280;3630;42.146;24.756;2023-03-11T06:45:46;97537.03;;;15.11;73.71
7178;BME280;3630;42.146;24.756;2023-03-11T06:48:13;97542.50;;;15.28;72.59
7178;BME280;3630;42.146;24.756;2023-03-11T06:50:40;97542.34;;;15.33;72.26
7178;BME280;3630;42.146;24.756;2023-03-11T06:53:07;97535.41;;;15.33;70.98
7178;BME280;3630;42.146;24.756;2023-03-11T06:55:34;97535.38;;;15.35;69.96
7178;BME280;3630;42.146;24.756;2023-03-11T06:58:01;97529.84;;;15.46;69.80
7178;BME280;3630;42.146;24.756;2023-03-11T07:00:27;97533.81;;;15.56;67.53
7178;BME280;3630;42.146;24.756;2023-03-11T07:02:56;97532.13;;;15.55;67.06
7178;BME280;3630;42.146;24.756;2023-03-11T07:05:23;97535.06;;;15.69;66.14
7178;BME280;3630;42.146;24.756;2023-03-11T07:07:52;97536.50;;;15.77;64.96
7178;BME280;3630;42.146;24.756;2023-03-11T07:10:19;97540.16;;;15.72;64.49
7178;BME280;3630;42.146;24.756;2023-03-11T07:12:46;97530.63;;;15.72;64.35
7178;BME280;3630;42.146;24.756;2023-03-11T07:15:13;97532.47;;;15.69;64.61
7178;BME280;3630;42.146;24.756;2023-03-11T07:17:39;97529.06;;;15.68;65.21
7178;BME280;3630;42.146;24.756;2023-03-11T07:20:09;97538.38;;;15.74;65.22
7178;BME280;3630;42.146;24.756;2023-03-11T07:22:36;97537.16;;;15.82;65.16
7178;BME280;3630;42.146;24.756;2023-03-11T07:25:03;97529.63;;;16.00;63.95
7178;BME280;3630;42.146;24.756;2023-03-11T07:27:30;97523.84;;;16.16;62.71
7178;BME280;3630;42.146;24.756;2023-03-11T07:29:57;97529.22;;;16.33;61.79
7178;BME280;3630;42.146;24.756;2023-03-11T07:32:23;97523.63;;;16.44;60.47
7178;BME280;3630;42.146;24.756;2023-03-11T07:34:50;97524.53;;;16.43;59.96
7178;BME280;3630;42.146;24.756;2023-03-11T07:37:18;97522.28;;;16.57;59.67
7178;BME280;3630;42.146;24.756;2023-03-11T07:39:45;97534.34;;;16.58;59.17
7178;BME280;3630;42.146;24.756;2023-03-11T07:42:12;97526.59;;;16.57;60.16
7178;BME280;3630;42.146;24.756;2023-03-11T07:44:39;97524.28;;;16.49;60.84
7178;BME280;3630;42.146;24.756;2023-03-11T07:47:06;97521.38;;;16.35;60.67
7178;BME280;3630;42.146;24.756;2023-03-11T07:49:32;97516.44;;;16.29;60.88
7178;BME280;3630;42.146;24.756;2023-03-11T07:51:59;97530.75;;;16.39;61.79
7178;BME280;3630;42.146;24.756;2023-03-11T07:54:27;97531.72;;;16.36;61.20
7178;BME280;3630;42.146;24.756;2023-03-11T07:56:54;97518.13;;;16.30;62.04
7178;BME280;3630;42.146;24.756;2023-03-11T07:59:21;97530.09;;;16.34;61.09
7178;BME280;3630;42.146;24.756;2023-03-11T08:01:48;97524.47;;;16.23;62.25
7178;BME280;3630;42.146;24.756;2023-03-11T08:04:15;97522.75;;;16.22;62.41
7178;BME280;3630;42.146;24.756;2023-03-11T08:06:43;97521.38;;;16.35;61.61
7178;BME280;3630;42.146;24.756;2023-03-11T08:09:11;97516.59;;;16.47;58.28
7178;BME280;3630;42.146;24.756;2023-03-11T08:11:40;97512.56;;;16.62;57.41
7178;BME280;3630;42.146;24.756;2023-03-11T08:14:07;97511.56;;;16.66;56.35
7178;BME280;3630;42.146;24.756;2023-03-11T08:16:33;97510.91;;;16.81;54.91
7178;BME280;3630;42.146;24.756;2023-03-11T08:19:00;97512.78;;;16.99;53.93
7178;BME280;3630;42.146;24.756;2023-03-11T08:21:28;97509.16;;;17.03;52.64
7178;BME280;3630;42.146;24.756;2023-03-11T08:23:57;97498.97;;;16.99;52.29
7178;BME280;3630;42.146;24.756;2023-03-11T08:26:24;97513.06;;;17.14;52.68
7178;BME280;3630;42.146;24.756;2023-03-11T08:28:53;97513.63;;;17.20;52.08
7178;BME280;3630;42.146;24.756;2023-03-11T08:31:22;97508.84;;;17.31;52.04
7178;BME280;3630;42.146;24.756;2023-03-11T08:33:51;97483.13;;;17.25;51.82
7178;BME280;3630;42.146;24.756;2023-03-11T08:36:19;97510.19;;;17.40;52.17
7178;BME280;3630;42.146;24.756;2023-03-11T08:38:46;97514.09;;;17.50;51.56
7178;BME280;3630;42.146;24.756;2023-03-11T08:41:13;97516.19;;;17.62;51.64
7178;BME280;3630;42.146;24.756;2023-03-11T08:43:40;97497.94;;;17.63;51.43
7178;BME280;3630;42.146;24.756;2023-03-11T08:46:13;97498.25;;;17.76;51.29
7178;BME280;3630;42.146;24.756;2023-03-11T08:48:41;97508.38;;;17.82;50.43
7178;BME280;3630;42.146;24.756;2023-03-11T08:51:09;97508.03;;;17.90;49.61
7178;BME280;3630;42.146;24.756;2023-03-11T08:53:36;97506.56;;;18.03;48.34
7178;BME280;3630;42.146;24.756;2023-03-11T08:56:03;97509.44;;;17.97;48.32
7178;BME280;3630;42.146;24.756;2023-03-11T08:58:30;97506.88;;;18.15;48.12
7178;BME280;3630;42.146;24.756;2023-03-11T09:00:57;97495.34;;;18.21;47.88
7178;BME280;3630;42.146;24.756;2023-03-11T09:03:25;97501.44;;;18.39;47.52
7178;BME280;3630;42.146;24.756;2023-03-11T09:05:57;97486.28;;;18.48;47.09
7178;BME280;3630;42.146;24.756;2023-03-11T09:08:23;97493.84;;;18.53;46.59
7178;BME280;3630;42.146;24.756;2023-03-11T09:10:50;97485.69;;;18.42;46.99
7178;BME280;3630;42.146;24.756;2023-03-11T09:13:17;97480.47;;;18.60;46.65
7178;BME280;3630;42.146;24.756;2023-03-11T09:15:44;97471.22;;;18.55;46.77
7178;BME280;3630;42.146;24.756;2023-03-11T09:18:11;97477.50;;;18.68;46.56
7178;BME280;3630;42.146;24.756;2023-03-11T09:20:40;97467.59;;;18.76;45.91
7178;BME280;3630;42.146;24.756;2023-03-11T09:23:07;97470.84;;;18.62;45.69
7178;BME280;3630;42.146;24.756;2023-03-11T09:25:35;97462.22;;;18.62;46.05
7178;BME280;3630;42.146;24.756;2023-03-11T09:28:02;97460.41;;;18.81;45.73
7178;BME280;3630;42.146;24.756;2023-03-11T09:30:29;97452.75;;;18.78;45.65
7178;BME280;3630;42.146;24.756;2023-03-11T09:32:55;97451.75;;;18.80;44.29
7178;BME280;3630;42.146;24.756;2023-03-11T09:35:22;97455.88;;;18.67;44.49
7178;BME280;3630;42.146;24.756;2023-03-11T09:37:51;97445.47;;;18.67;44.92
7178;BME280;3630;42.146;24.756;2023-03-11T09:40:20;97448.06;;;18.67;44.92
7178;BME280;3630;42.146;24.756;2023-03-11T09:42:55;97430.25;;;18.41;45.66
7178;BME280;3630;42.146;24.756;2023-03-11T09:45:24;97441.25;;;18.29;46.37
7178;BME280;3630;42.146;24.756;2023-03-11T09:48:08;97441.56;;;18.40;45.92
7178;BME280;3630;42.146;24.756;2023-03-11T09:50:38;97448.41;;;18.60;46.01
7178;BME280;3630;42.146;24.756;2023-03-11T09:53:20;97447.25;;;18.84;44.97
7178;BME280;3630;42.146;24.756;2023-03-11T09:55:49;97441.03;;;18.87;44.85
7178;BME280;3630;42.146;24.756;2023-03-11T09:58:24;97443.56;;;18.88;43.51
7178;BME280;3630;42.146;24.756;2023-03-11T10:00:55;97427.03;;;19.06;42.81
7178;BME280;3630;42.146;24.756;2023-03-11T10:03:28;97432.47;;;19.02;43.00
7178;BME280;3630;42.146;24.756;2023-03-11T10:06:15;97432.69;;;18.97;42.51
7178;BME280;3630;42.146;24.756;2023-03-11T10:08:47;97432.47;;;19.02;42.31
7178;BME280;3630;42.146;24.756;2023-03-11T10:11:27;97388.59;;;18.43;42.15
7178;BME280;3630;42.146;24.756;2023-03-11T10:14:05;97446.78;;;18.76;42.74
7178;BME280;3630;42.146;24.756;2023-03-11T10:16:42;97453.66;;;18.94;41.60
7178;BME280;3630;42.146;24.756;2023-03-11T10:19:20;97447.84;;;18.89;41.70
7178;BME280;3630;42.146;24.756;2023-03-11T10:21:57;97447.63;;;18.94;41.10
7178;BME280;3630;42.146;24.756;2023-03-11T10:24:37;97462.53;;;18.73;41.46
7178;BME280;3630;42.146;24.756;2023-03-11T10:27:09;97454.03;;;18.69;41.59
7178;BME280;3630;42.146;24.756;2023-03-11T10:29:45;97457.69;;;18.65;42.19
7178;BME280;3630;42.146;24.756;2023-03-11T10:32:16;97450.72;;;18.66;41.94
7178;BME280;3630;42.146;24.756;2023-03-11T10:34:46;97413.72;;;18.78;41.82
7178;BME280;3630;42.146;24.756;2023-03-11T10:37:16;97433.75;;;18.93;41.11
7178;BME280;3630;42.146;24.756;2023-03-11T10:39:47;97429.94;;;19.00;40.93
7178;BME280;3630;42.146;24.756;2023-03-11T10:42:16;97423.25;;;19.12;40.91
7178;BME280;3630;42.146;24.756;2023-03-11T10:44:45;97430.25;;;19.11;41.25
7178;BME280;3630;42.146;24.756;2023-03-11T10:47:16;97427.00;;;19.23;40.70
7178;BME280;3630;42.146;24.756;2023-03-11T10:49:43;97435.66;;;19.24;40.09
7178;BME280;3630;42.146;24.756;2023-03-11T10:52:10;97424.56;;;19.20;39.37
7178;BME280;3630;42.146;24.756;2023-03-11T10:54:40;97411.34;;;19.08;39.55
7178;BME280;3630;42.146;24.756;2023-03-11T10:57:22;97416.75;;;19.20;39.78
7178;BME280;3630;42.146;24.756;2023-03-11T10:59:51;97423.84;;;19.34;39.79
7178;BME280;3630;42.146;24.756;2023-03-11T11:02:22;97413.75;;;19.45;39.54
7178;BME280;3630;42.146;24.756;2023-03-11T11:05:05;97411.50;;;19.55;38.83
7178;BME280;3630;42.146;24.756;2023-03-11T11:07:34;97399.31;;;19.55;38.36
7178;BME280;3630;42.146;24.756;2023-03-11T11:10:17;97406.31;;;19.70;38.60
7178;BME280;3630;42.146;24.756;2023-03-11T11:12:56;97404.28;;;19.75;37.50
7178;BME280;3630;42.146;24.756;2023-03-11T11:15:26;97394.56;;;19.79;37.98
7178;BME280;3630;42.146;24.756;2023-03-11T11:17:56;97395.81;;;20.03;37.79
7178;BME280;3630;42.146;24.756;2023-03-11T11:20:25;97395.06;;;20.01;37.58
7178;BME280;3630;42.146;24.756;2023-03-11T11:22:54;97389.19;;;19.97;37.77
7178;BME280;3630;42.146;24.756;2023-03-11T11:25:27;97402.47;;;19.93;37.60
7178;BME280;3630;42.146;24.756;2023-03-11T11:27:58;97382.13;;;19.68;37.61
7178;BME280;3630;42.146;24.756;2023-03-11T11:30:26;97388.50;;;19.63;37.69
7178;BME280;3630;42.146;24.756;2023-03-11T11:32:54;97384.03;;;19.49;37.01
7178;BME280;3630;42.146;24.756;2023-03-11T11:35:22;97395.19;;;19.34;36.32
7178;BME280;3630;42.146;24.756;2023-03-11T11:37:50;97379.28;;;19.23;36.68
7178;BME280;3630;42.146;24.756;2023-03-11T11:40:27;97383.69;;;19.22;36.77
7178;BME280;3630;42.146;24.756;2023-03-11T11:42:58;97371.72;;;19.18;36.89
7178;BME280;3630;42.146;24.756;2023-03-11T11:45:33;97378.97;;;19.29;36.74
7178;BME280;3630;42.146;24.756;2023-03-11T11:48:05;97374.19;;;19.37;36.25
7178;BME280;3630;42.146;24.756;2023-03-11T11:50:34;97378.72;;;19.51;36.50
7178;BME280;3630;42.146;24.756;2023-03-11T11:53:08;97369.50;;;19.76;36.21
7178;BME280;3630;42.146;24.756;2023-03-11T11:55:39;97374.38;;;19.98;33.80
7178;BME280;3630;42.146;24.756;2023-03-11T11:58:09;97357.59;;;19.88;31.68
7178;BME280;3630;42.146;24.756;2023-03-11T12:00:44;97362.94;;;20.00;31.46
7178;BME280;3630;42.146;24.756;2023-03-11T12:03:29;97358.00;;;19.96;31.70
7178;BME280;3630;42.146;24.756;2023-03-11T12:06:09;97345.88;;;19.95;32.16
7178;BME280;3630;42.146;24.756;2023-03-11T12:08:44;97345.28;;;19.90;32.43
7178;BME280;3630;42.146;24.756;2023-03-11T12:11:17;97347.06;;;20.05;32.50
7178;BME280;3630;42.146;24.756;2023-03-11T12:13:57;97333.81;;;20.24;32.27
7178;BME280;3630;42.146;24.756;2023-03-11T12:16:36;97328.94;;;20.33;32.28
7178;BME280;3630;42.146;24.756;2023-03-11T12:19:14;97332.28;;;20.51;32.31
7178;BME280;3630;42.146;24.756;2023-03-11T12:22:12;97332.34;;;20.49;32.11
7178;BME280;3630;42.146;24.756;2023-03-11T12:24:59;97322.81;;;20.34;31.76
7178;BME280;3630;42.146;24.756;2023-03-11T12:27:30;97327.13;;;20.35;31.82
7178;BME280;3630;42.146;24.756;2023-03-11T12:30:04;97339.38;;;20.33;31.55
7178;BME280;3630;42.146;24.756;2023-03-11T12:32:39;97327.28;;;20.32;31.81
7178;BME280;3630;42.146;24.756;2023-03-11T12:35:09;97329.28;;;20.12;32.35
7178;BME280;3630;42.146;24.756;2023-03-11T12:37:45;97329.97;;;20.15;32.69
7178;BME280;3630;42.146;24.756;2023-03-11T12:40:55;97325.03;;;20.26;32.57
7178;BME280;3630;42.146;24.756;2023-03-11T12:46:07;97326.88;;;20.24;32.01
7178;BME280;3630;42.146;24.756;2023-03-11T12:48:41;97331.56;;;20.33;32.24
7178;BME280;3630;42.146;24.756;2023-03-11T12:51:37;97336.25;;;20.42;32.04
7178;BME280;3630;42.146;24.756;2023-03-11T12:54:27;97337.34;;;20.38;32.13
7178;BME280;3630;42.146;24.756;2023-03-11T12:56:56;97360.91;;;20.21;34.00
7178;BME280;3630;42.146;24.756;2023-03-11T12:59:46;97350.75;;;19.70;36.05
7178;BME280;3630;42.146;24.756;2023-03-11T13:02:28;97333.25;;;19.56;33.85
7178;BME280;3630;42.146;24.756;2023-03-11T13:05:12;97352.28;;;19.89;34.91
7178;BME280;3630;42.146;24.756;2023-03-11T13:07:45;97360.25;;;19.86;35.75
7178;BME280;3630;42.146;24.756;2023-03-11T13:10:20;97359.66;;;19.97;36.04
7178;BME280;3630;42.146;24.756;2023-03-11T13:12:59;97366.03;;;20.23;35.33
7178;BME280;3630;42.146;24.756;2023-03-11T13:15:29;97373.00;;;20.22;34.92
7178;BME280;3630;42.146;24.756;2023-03-11T13:18:13;97389.19;;;20.13;34.65
7178;BME280;3630;42.146;24.756;2023-03-11T13:20:58;97390.03;;;20.29;34.88
7178;BME280;3630;42.146;24.756;2023-03-11T13:23:31;97407.00;;;20.36;34.65
7178;BME280;3630;42.146;24.756;2023-03-11T13:26:20;97399.53;;;20.30;35.09
7178;BME280;3630;42.146;24.756;2023-03-11T13:34:49;97395.16;;;20.15;35.84